sensor_id;sensor_type;location;lat;lon;timestamp;P1;durP1;ratioP1;P2;durP2;ratioP2
45642;SDS011;31358;46.008;11.144;2022-09-09T00:04:18;6.63;;;3.70;;
45642;SDS011;31358;46.008;11.144;2022-09-09T00:06:52;7.53;;;3.60;;
45642;SDS011;31358;46.008;11.144;2022-09-09T00:20:58;7.88;;;3.75;;
45642;SDS011;31358;46.008;11.144;2022-09-09T00:26:13;8.85;;;3.10;;
45642;SDS011;31358;46.008;11.144;2022-09-09T00:31:40;9.35;;;4.13;;
45642;SDS011;31358;46.008;11.144;2022-09-09T00:34:14;6.90;;;3.63;;
45642;SDS011;31358;46.008;11.144;2022-09-09T00:36:44;6.80;;;3.42;;
45642;SDS011;31358;46.008;11.144;2022-09-09T00:39:21;6.70;;;3.03;;
45642;SDS011;31358;46.008;11.144;2022-09-09T00:55:21;13.25;;;3.60;;
45642;SDS011;31358;46.008;11.144;2022-09-09T00:58:06;8.05;;;3.53;;
45642;SDS011;31358;46.008;11.144;2022-09-09T01:00:35;7.82;;;3.60;;
45642;SDS011;31358;46.008;11.144;2022-09-09T01:17:01;7.60;;;3.75;;
45642;SDS011;31358;46.008;11.144;2022-09-09T01:22:19;9.35;;;2.95;;
45642;SDS011;31358;46.008;11.144;2022-09-09T01:27:55;9.73;;;3.67;;
45642;SDS011;31358;46.008;11.144;2022-09-09T01:30:24;5.57;;;2.72;;
45642;SDS011;31358;46.008;11.144;2022-09-09T01:32:53;10.50;;;3.05;;
45642;SDS011;31358;46.008;11.144;2022-09-09T01:37:48;9.75;;;3.45;;
45642;SDS011;31358;46.008;11.144;2022-09-09T01:40:14;4.95;;;2.63;;
45642;SDS011;31358;46.008;11.144;2022-09-09T01:42:40;4.57;;;2.55;;
45642;SDS011;31358;46.008;11.144;2022-09-09T01:45:06;5.90;;;2.42;;
45642;SDS011;31358;46.008;11.144;2022-09-09T01:47:32;5.95;;;2.33;;
45642;SDS011;31358;46.008;11.144;2022-09-09T01:49:58;7.45;;;2.38;;
45642;SDS011;31358;46.008;11.144;2022-09-09T01:52:26;5.35;;;2.20;;
45642;SDS011;31358;46.008;11.144;2022-09-09T01:54:52;3.60;;;2.05;;
45642;SDS011;31358;46.008;11.144;2022-09-09T02:02:26;8.75;;;2.92;;
45642;SDS011;31358;46.008;11.144;2022-09-09T02:08:08;6.00;;;3.17;;
45642;SDS011;31358;46.008;11.144;2022-09-09T02:11:16;8.38;;;3.03;;
45642;SDS011;31358;46.008;11.144;2022-09-09T02:13:47;9.07;;;2.85;;
45642;SDS011;31358;46.008;11.144;2022-09-09T02:16:18;4.28;;;2.17;;
45642;SDS011;31358;46.008;11.144;2022-09-09T02:19:12;5.22;;;2.50;;
45642;SDS011;31358;46.008;11.144;2022-09-09T02:21:39;6.30;;;3.25;;
45642;SDS011;31358;46.008;11.144;2022-09-09T02:24:07;4.15;;;2.20;;
45642;SDS011;31358;46.008;11.144;2022-09-09T02:26:35;5.70;;;2.92;;
45642;SDS011;31358;46.008;11.144;2022-09-09T02:29:06;8.60;;;3.00;;
45642;SDS011;31358;46.008;11.144;2022-09-09T02:31:37;5.57;;;3.28;;
45642;SDS011;31358;46.008;11.144;2022-09-09T02:34:04;12.88;;;3.70;;
45642;SDS011;31358;46.008;11.144;2022-09-09T02:36:34;8.15;;;3.45;;
45642;SDS011;31358;46.008;11.144;2022-09-09T02:39:02;7.93;;;3.03;;
45642;SDS011;31358;46.008;11.144;2022-09-09T02:41:31;8.73;;;3.47;;
45642;SDS011;31358;46.008;11.144;2022-09-09T02:43:59;7.68;;;3.17;;
45642;SDS011;31358;46.008;11.144;2022-09-09T02:46:44;8.38;;;4.03;;
45642;SDS011;31358;46.008;11.144;2022-09-09T02:52:29;9.07;;;4.20;;
45642;SDS011;31358;46.008;11.144;2022-09-09T02:55:16;9.35;;;3.95;;
45642;SDS011;31358;46.008;11.144;2022-09-09T02:57:49;7.90;;;3.55;;
45642;SDS011;31358;46.008;11.144;2022-09-09T03:00:16;10.27;;;3.53;;
45642;SDS011;31358;46.008;11.144;2022-09-09T03:02:49;6.47;;;3.20;;
45642;SDS011;31358;46.008;11.144;2022-09-09T03:05:16;10.60;;;4.45;;
45642;SDS011;31358;46.008;11.144;2022-09-09T03:07:42;8.80;;;3.50;;
45642;SDS011;31358;46.008;11.144;2022-09-09T03:10:07;10.00;;;4.15;;
45642;SDS011;31358;46.008;11.144;2022-09-09T03:12:33;7.45;;;3.47;;
45642;SDS011;31358;46.008;11.144;2022-09-09T03:14:59;10.80;;;4.10;;
45642;SDS011;31358;46.008;11.144;2022-09-09T03:17:24;8.40;;;4.03;;
45642;SDS011;31358;46.008;11.144;2022-09-09T03:19:52;6.38;;;4.13;;
45642;SDS011;31358;46.008;11.144;2022-09-09T03:22:20;8.20;;;3.80;;
45642;SDS011;31358;46.008;11.144;2022-09-09T03:24:46;5.80;;;3.25;;
45642;SDS011;31358;46.008;11.144;2022-09-09T03:27:12;6.20;;;3.45;;
45642;SDS011;31358;46.008;11.144;2022-09-09T03:29:39;15.68;;;4.30;;
45642;SDS011;31358;46.008;11.144;2022-09-09T03:32:05;7.03;;;3.55;;
45642;SDS011;31358;46.008;11.144;2022-09-09T03:34:30;7.30;;;3.97;;
45642;SDS011;31358;46.008;11.144;2022-09-09T03:36:56;7.75;;;4.10;;
45642;SDS011;31358;46.008;11.144;2022-09-09T03:39:22;6.63;;;3.67;;
45642;SDS011;31358;46.008;11.144;2022-09-09T03:41:48;9.27;;;3.22;;
45642;SDS011;31358;46.008;11.144;2022-09-09T03:44:14;6.80;;;3.95;;
45642;SDS011;31358;46.008;11.144;2022-09-09T03:46:39;7.05;;;3.63;;
45642;SDS011;31358;46.008;11.144;2022-09-09T03:49:05;9.25;;;3.38;;
45642;SDS011;31358;46.008;11.144;2022-09-09T03:51:31;8.70;;;3.50;;
45642;SDS011;31358;46.008;11.144;2022-09-09T03:54:01;5.63;;;3.00;;
45642;SDS011;31358;46.008;11.144;2022-09-09T03:56:30;6.40;;;2.92;;
45642;SDS011;31358;46.008;11.144;2022-09-09T03:58:56;8.13;;;3.35;;
45642;SDS011;31358;46.008;11.144;2022-09-09T04:01:22;6.72;;;3.25;;
45642;SDS011;31358;46.008;11.144;2022-09-09T04:03:48;9.77;;;3.15;;
45642;SDS011;31358;46.008;11.144;2022-09-09T04:06:15;9.35;;;3.42;;
45642;SDS011;31358;46.008;11.144;2022-09-09T04:08:42;6.95;;;2.97;;
45642;SDS011;31358;46.008;11.144;2022-09-09T04:11:08;6.18;;;3.80;;
45642;SDS011;31358;46.008;11.144;2022-09-09T04:13:35;7.28;;;3.50;;
45642;SDS011;31358;46.008;11.144;2022-09-09T04:16:02;5.53;;;3.28;;
45642;SDS011;31358;46.008;11.144;2022-09-09T04:18:29;7.72;;;3.38;;
45642;SDS011;31358;46.008;11.144;2022-09-09T04:20:54;6.18;;;2.95;;
45642;SDS011;31358;46.008;11.144;2022-09-09T04:23:24;9.40;;;3.00;;
45642;SDS011;31358;46.008;11.144;2022-09-09T04:25:52;6.85;;;2.97;;
45642;SDS011;31358;46.008;11.144;2022-09-09T04:28:20;11.07;;;4.10;;
45642;SDS011;31358;46.008;11.144;2022-09-09T04:30:48;8.63;;;3.33;;
45642;SDS011;31358;46.008;11.144;2022-09-09T04:33:14;5.82;;;3.63;;
45642;SDS011;31358;46.008;11.144;2022-09-09T04:35:47;6.30;;;3.42;;
45642;SDS011;31358;46.008;11.144;2022-09-09T04:38:15;7.82;;;3.33;;
45642;SDS011;31358;46.008;11.144;2022-09-09T04:40:42;8.40;;;3.90;;
45642;SDS011;31358;46.008;11.144;2022-09-09T04:43:09;5.97;;;3.20;;
45642;SDS011;31358;46.008;11.144;2022-09-09T04:45:35;9.57;;;3.92;;
45642;SDS011;31358;46.008;11.144;2022-09-09T04:48:02;6.57;;;4.10;;
45642;SDS011;31358;46.008;11.144;2022-09-09T04:50:28;10.25;;;3.08;;
45642;SDS011;31358;46.008;11.144;2022-09-09T04:52:53;6.35;;;3.88;;
45642;SDS011;31358;46.008;11.144;2022-09-09T04:55:19;6.65;;;3.95;;
45642;SDS011;31358;46.008;11.144;2022-09-09T04:57:45;9.60;;;3.90;;
45642;SDS011;31358;46.008;11.144;2022-09-09T05:00:11;6.68;;;3.42;;
45642;SDS011;31358;46.008;11.144;2022-09-09T05:02:37;11.60;;;3.33;;
45642;SDS011;31358;46.008;11.144;2022-09-09T05:05:04;9.32;;;3.85;;
45642;SDS011;31358;46.008;11.144;2022-09-09T05:07:30;8.88;;;3.33;;
45642;SDS011;31358;46.008;11.144;2022-09-09T05:09:56;6.90;;;3.97;;
45642;SDS011;31358;46.008;11.144;2022-09-09T05:12:22;6.70;;;3.72;;
45642;SDS011;31358;46.008;11.144;2022-09-09T05:14:51;9.05;;;3.90;;
45642;SDS011;31358;46.008;11.144;2022-09-09T05:17:17;7.00;;;4.30;;
45642;SDS011;31358;46.008;11.144;2022-09-09T05:19:43;5.30;;;3.42;;
45642;SDS011;31358;46.008;11.144;2022-09-09T05:22:09;9.52;;;3.72;;
45642;SDS011;31358;46.008;11.144;2022-09-09T05:24:36;12.57;;;3.78;;
45642;SDS011;31358;46.008;11.144;2022-09-09T05:27:03;7.40;;;3.72;;
45642;SDS011;31358;46.008;11.144;2022-09-09T05:29:29;9.52;;;3.17;;
45642;SDS011;31358;46.008;11.144;2022-09-09T05:31:55;6.78;;;4.13;;
45642;SDS011;31358;46.008;11.144;2022-09-09T05:34:20;6.93;;;3.50;;
45642;SDS011;31358;46.008;11.144;2022-09-09T05:36:46;8.13;;;4.22;;
45642;SDS011;31358;46.008;11.144;2022-09-09T05:39:12;9.82;;;3.17;;
45642;SDS011;31358;46.008;11.144;2022-09-09T05:41:38;5.65;;;3.78;;
45642;SDS011;31358;46.008;11.144;2022-09-09T05:44:03;7.53;;;3.20;;
45642;SDS011;31358;46.008;11.144;2022-09-09T05:46:30;7.25;;;3.20;;
45642;SDS011;31358;46.008;11.144;2022-09-09T05:48:56;5.07;;;2.83;;
45642;SDS011;31358;46.008;11.144;2022-09-09T05:51:26;8.07;;;3.70;;
45642;SDS011;31358;46.008;11.144;2022-09-09T05:53:55;5.75;;;2.63;;
45642;SDS011;31358;46.008;11.144;2022-09-09T05:56:24;6.38;;;3.30;;
45642;SDS011;31358;46.008;11.144;2022-09-09T05:58:54;7.03;;;3.28;;
45642;SDS011;31358;46.008;11.144;2022-09-09T06:01:22;7.07;;;2.90;;
45642;SDS011;31358;46.008;11.144;2022-09-09T06:03:48;10.32;;;3.80;;
45642;SDS011;31358;46.008;11.144;2022-09-09T06:06:19;12.10;;;3.30;;
45642;SDS011;31358;46.008;11.144;2022-09-09T06:08:46;7.25;;;3.58;;
45642;SDS011;31358;46.008;11.144;2022-09-09T06:11:13;6.70;;;3.03;;
45642;SDS011;31358;46.008;11.144;2022-09-09T06:13:43;9.77;;;3.15;;
45642;SDS011;31358;46.008;11.144;2022-09-09T06:16:10;5.50;;;2.35;;
45642;SDS011;31358;46.008;11.144;2022-09-09T06:18:41;7.03;;;3.13;;
45642;SDS011;31358;46.008;11.144;2022-09-09T06:21:09;8.23;;;3.00;;
45642;SDS011;31358;46.008;11.144;2022-09-09T06:23:41;8.20;;;3.65;;
45642;SDS011;31358;46.008;11.144;2022-09-09T06:28:45;7.80;;;3.58;;
45642;SDS011;31358;46.008;11.144;2022-09-09T06:31:13;5.53;;;2.90;;
45642;SDS011;31358;46.008;11.144;2022-09-09T06:33:42;7.32;;;3.35;;
45642;SDS011;31358;46.008;11.144;2022-09-09T06:36:14;7.50;;;3.13;;
45642;SDS011;31358;46.008;11.144;2022-09-09T06:38:51;6.40;;;3.22;;
45642;SDS011;31358;46.008;11.144;2022-09-09T06:41:17;5.82;;;3.30;;
45642;SDS011;31358;46.008;11.144;2022-09-09T06:43:45;7.78;;;3.00;;
45642;SDS011;31358;46.008;11.144;2022-09-09T06:46:12;6.85;;;2.40;;
45642;SDS011;31358;46.008;11.144;2022-09-09T06:48:42;4.97;;;2.63;;
45642;SDS011;31358;46.008;11.144;2022-09-09T06:53:40;5.10;;;2.65;;
45642;SDS011;31358;46.008;11.144;2022-09-09T06:58:38;5.88;;;2.90;;
45642;SDS011;31358;46.008;11.144;2022-09-09T07:01:09;8.13;;;3.42;;
45642;SDS011;31358;46.008;11.144;2022-09-09T07:03:37;7.50;;;2.42;;
45642;SDS011;31358;46.008;11.144;2022-09-09T07:06:04;6.63;;;2.47;;
45642;SDS011;31358;46.008;11.144;2022-09-09T07:08:31;5.68;;;2.53;;
45642;SDS011;31358;46.008;11.144;2022-09-09T07:11:06;4.30;;;2.60;;
45642;SDS011;31358;46.008;11.144;2022-09-09T07:13:33;9.95;;;2.65;;
45642;SDS011;31358;46.008;11.144;2022-09-09T07:16:06;5.10;;;2.33;;
45642;SDS011;31358;46.008;11.144;2022-09-09T07:18:36;5.80;;;2.17;;
45642;SDS011;31358;46.008;11.144;2022-09-09T07:21:02;6.90;;;3.00;;
45642;SDS011;31358;46.008;11.144;2022-09-09T07:23:29;5.95;;;3.20;;
45642;SDS011;31358;46.008;11.144;2022-09-09T07:25:56;8.45;;;2.38;;
45642;SDS011;31358;46.008;11.144;2022-09-09T07:28:23;4.28;;;2.10;;
45642;SDS011;31358;46.008;11.144;2022-09-09T07:30:59;8.25;;;2.28;;
45642;SDS011;31358;46.008;11.144;2022-09-09T07:33:27;3.92;;;2.13;;
45642;SDS011;31358;46.008;11.144;2022-09-09T07:36:01;7.63;;;2.50;;
45642;SDS011;31358;46.008;11.144;2022-09-09T07:38:29;6.35;;;2.20;;
45642;SDS011;31358;46.008;11.144;2022-09-09T07:41:31;6.03;;;2.08;;
45642;SDS011;31358;46.008;11.144;2022-09-09T07:43:50;4.72;;;2.42;;
45642;SDS011;31358;46.008;11.144;2022-09-09T07:46:17;9.60;;;2.33;;
45642;SDS011;31358;46.008;11.144;2022-09-09T07:48:47;4.90;;;2.08;;
45642;SDS011;31358;46.008;11.144;2022-09-09T07:51:20;6.68;;;2.17;;
45642;SDS011;31358;46.008;11.144;2022-09-09T07:54:16;6.30;;;1.95;;
45642;SDS011;31358;46.008;11.144;2022-09-09T07:56:48;3.10;;;1.60;;
45642;SDS011;31358;46.008;11.144;2022-09-09T07:59:15;6.60;;;2.20;;
45642;SDS011;31358;46.008;11.144;2022-09-09T08:01:48;2.97;;;1.60;;
45642;SDS011;31358;46.008;11.144;2022-09-09T08:04:19;6.97;;;2.53;;
45642;SDS011;31358;46.008;11.144;2022-09-09T08:06:49;6.75;;;2.25;;
45642;SDS011;31358;46.008;11.144;2022-09-09T08:09:20;6.65;;;1.63;;
45642;SDS011;31358;46.008;11.144;2022-09-09T08:11:47;7.45;;;2.22;;
45642;SDS011;31358;46.008;11.144;2022-09-09T08:14:13;4.82;;;1.75;;
45642;SDS011;31358;46.008;11.144;2022-09-09T08:16:43;7.15;;;2.03;;
45642;SDS011;31358;46.008;11.144;2022-09-09T08:19:10;4.82;;;1.50;;
45642;SDS011;31358;46.008;11.144;2022-09-09T08:21:37;7.25;;;1.65;;
45642;SDS011;31358;46.008;11.144;2022-09-09T08:24:05;4.38;;;1.95;;
45642;SDS011;31358;46.008;11.144;2022-09-09T08:26:32;8.98;;;2.65;;
45642;SDS011;31358;46.008;11.144;2022-09-09T08:29:00;3.75;;;1.70;;
45642;SDS011;31358;46.008;11.144;2022-09-09T08:31:31;5.25;;;1.90;;
45642;SDS011;31358;46.008;11.144;2022-09-09T08:33:59;3.40;;;1.50;;
45642;SDS011;31358;46.008;11.144;2022-09-09T08:36:27;6.35;;;2.38;;
45642;SDS011;31358;46.008;11.144;2022-09-09T08:38:55;7.13;;;2.35;;
45642;SDS011;31358;46.008;11.144;2022-09-09T08:47:30;4.25;;;1.90;;
45642;SDS011;31358;46.008;11.144;2022-09-09T08:50:05;5.00;;;2.05;;
45642;SDS011;31358;46.008;11.144;2022-09-09T08:55:27;3.83;;;2.00;;
45642;SDS011;31358;46.008;11.144;2022-09-09T08:57:58;5.95;;;2.25;;
45642;SDS011;31358;46.008;11.144;2022-09-09T09:01:09;3.40;;;1.60;;
45642;SDS011;31358;46.008;11.144;2022-09-09T09:03:35;4.22;;;1.77;;
45642;SDS011;31358;46.008;11.144;2022-09-09T09:09:02;5.38;;;1.50;;
45642;SDS011;31358;46.008;11.144;2022-09-09T09:11:35;2.95;;;1.60;;
45642;SDS011;31358;46.008;11.144;2022-09-09T09:14:19;3.58;;;1.30;;
45642;SDS011;31358;46.008;11.144;2022-09-09T09:17:00;6.68;;;2.50;;
45642;SDS011;31358;46.008;11.144;2022-09-09T09:19:28;5.18;;;1.80;;
45642;SDS011;31358;46.008;11.144;2022-09-09T09:32:40;3.47;;;1.73;;
45642;SDS011;31358;46.008;11.144;2022-09-09T09:35:11;3.28;;;1.60;;
45642;SDS011;31358;46.008;11.144;2022-09-09T09:37:39;4.80;;;1.75;;
45642;SDS011;31358;46.008;11.144;2022-09-09T09:42:34;3.58;;;1.60;;
45642;SDS011;31358;46.008;11.144;2022-09-09T09:45:07;4.53;;;1.42;;
45642;SDS011;31358;46.008;11.144;2022-09-09T09:47:57;3.97;;;1.80;;
45642;SDS011;31358;46.008;11.144;2022-09-09T09:50:47;4.80;;;1.88;;
45642;SDS011;31358;46.008;11.144;2022-09-09T09:53:23;3.45;;;1.83;;
45642;SDS011;31358;46.008;11.144;2022-09-09T09:55:56;4.75;;;2.08;;
45642;SDS011;31358;46.008;11.144;2022-09-09T09:58:24;5.80;;;2.10;;
45642;SDS011;31358;46.008;11.144;2022-09-09T10:00:53;6.13;;;2.05;;
45642;SDS011;31358;46.008;11.144;2022-09-09T10:05:54;6.40;;;1.90;;
45642;SDS011;31358;46.008;11.144;2022-09-09T10:08:21;3.60;;;1.75;;
45642;SDS011;31358;46.008;11.144;2022-09-09T10:13:47;4.43;;;1.83;;
45642;SDS011;31358;46.008;11.144;2022-09-09T10:32:46;2.58;;;1.15;;
45642;SDS011;31358;46.008;11.144;2022-09-09T10:37:56;2.08;;;1.08;;
45642;SDS011;31358;46.008;11.144;2022-09-09T10:43:01;2.53;;;0.93;;
45642;SDS011;31358;46.008;11.144;2022-09-09T10:45:45;2.10;;;0.73;;
45642;SDS011;31358;46.008;11.144;2022-09-09T10:48:33;2.40;;;0.95;;
45642;SDS011;31358;46.008;11.144;2022-09-09T10:56:50;2.50;;;0.63;;
45642;SDS011;31358;46.008;11.144;2022-09-09T10:59:40;2.17;;;0.93;;
45642;SDS011;31358;46.008;11.144;2022-09-09T11:02:13;2.10;;;0.88;;
45642;SDS011;31358;46.008;11.144;2022-09-09T11:04:49;1.10;;;0.60;;
45642;SDS011;31358;46.008;11.144;2022-09-09T11:07:25;2.15;;;0.88;;
45642;SDS011;31358;46.008;11.144;2022-09-09T11:10:03;2.65;;;1.15;;
45642;SDS011;31358;46.008;11.144;2022-09-09T11:12:36;1.70;;;0.80;;
45642;SDS011;31358;46.008;11.144;2022-09-09T11:15:06;1.85;;;0.85;;
45642;SDS011;31358;46.008;11.144;2022-09-09T11:17:40;1.73;;;0.95;;
45642;SDS011;31358;46.008;11.144;2022-09-09T11:20:12;1.70;;;0.80;;
45642;SDS011;31358;46.008;11.144;2022-09-09T11:22:41;1.75;;;0.85;;
45642;SDS011;31358;46.008;11.144;2022-09-09T11:25:29;0.90;;;0.60;;
45642;SDS011;31358;46.008;11.144;2022-09-09T11:28:04;3.22;;;1.23;;
45642;SDS011;31358;46.008;11.144;2022-09-09T11:42:29;1.23;;;0.50;;
45642;SDS011;31358;46.008;11.144;2022-09-09T11:44:55;1.63;;;0.70;;
45642;SDS011;31358;46.008;11.144;2022-09-09T11:47:28;5.57;;;0.80;;
45642;SDS011;31358;46.008;11.144;2022-09-09T11:50:09;1.83;;;0.75;;
45642;SDS011;31358;46.008;11.144;2022-09-09T11:52:44;1.55;;;0.63;;
45642;SDS011;31358;46.008;11.144;2022-09-09T11:55:33;2.17;;;0.80;;
45642;SDS011;31358;46.008;11.144;2022-09-09T12:00:37;1.95;;;1.00;;
45642;SDS011;31358;46.008;11.144;2022-09-09T12:06:00;1.15;;;0.50;;
45642;SDS011;31358;46.008;11.144;2022-09-09T12:08:36;2.60;;;0.80;;
45642;SDS011;31358;46.008;11.144;2022-09-09T12:11:07;1.40;;;0.80;;
45642;SDS011;31358;46.008;11.144;2022-09-09T12:13:32;2.17;;;0.70;;
45642;SDS011;31358;46.008;11.144;2022-09-09T12:15:59;3.03;;;0.68;;
45642;SDS011;31358;46.008;11.144;2022-09-09T12:18:34;2.03;;;0.95;;
45642;SDS011;31358;46.008;11.144;2022-09-09T12:21:21;1.15;;;0.60;;
45642;SDS011;31358;46.008;11.144;2022-09-09T12:23:55;1.00;;;0.57;;
45642;SDS011;31358;46.008;11.144;2022-09-09T12:26:47;3.15;;;0.60;;
45642;SDS011;31358;46.008;11.144;2022-09-09T12:29:37;1.10;;;0.63;;
45642;SDS011;31358;46.008;11.144;2022-09-09T12:32:28;1.95;;;0.65;;
45642;SDS011;31358;46.008;11.144;2022-09-09T12:34:55;1.00;;;0.45;;
45642;SDS011;31358;46.008;11.144;2022-09-09T12:37:30;3.25;;;0.90;;
45642;SDS011;31358;46.008;11.144;2022-09-09T12:39:58;1.33;;;0.70;;
45642;SDS011;31358;46.008;11.144;2022-09-09T12:42:27;1.55;;;0.65;;
45642;SDS011;31358;46.008;11.144;2022-09-09T12:44:57;1.55;;;0.50;;
45642;SDS011;31358;46.008;11.144;2022-09-09T12:47:36;2.25;;;0.90;;
45642;SDS011;31358;46.008;11.144;2022-09-09T12:50:19;4.22;;;0.82;;
45642;SDS011;31358;46.008;11.144;2022-09-09T12:52:47;1.80;;;0.90;;
45642;SDS011;31358;46.008;11.144;2022-09-09T12:55:21;1.15;;;0.80;;
45642;SDS011;31358;46.008;11.144;2022-09-09T12:57:56;2.17;;;0.80;;
45642;SDS011;31358;46.008;11.144;2022-09-09T13:00:24;1.90;;;0.88;;
45642;SDS011;31358;46.008;11.144;2022-09-09T13:07:51;1.23;;;0.50;;
45642;SDS011;31358;46.008;11.144;2022-09-09T13:10:26;1.42;;;0.70;;
45642;SDS011;31358;46.008;11.144;2022-09-09T13:12:55;3.25;;;0.60;;
45642;SDS011;31358;46.008;11.144;2022-09-09T13:15:22;1.05;;;0.50;;
45642;SDS011;31358;46.008;11.144;2022-09-09T13:17:56;1.27;;;0.80;;
45642;SDS011;31358;46.008;11.144;2022-09-09T13:20:25;1.92;;;0.70;;
45642;SDS011;31358;46.008;11.144;2022-09-09T13:22:52;4.13;;;0.90;;
45642;SDS011;31358;46.008;11.144;2022-09-09T13:25:29;0.90;;;0.60;;
45642;SDS011;31358;46.008;11.144;2022-09-09T13:28:01;2.15;;;0.95;;
45642;SDS011;31358;46.008;11.144;2022-09-09T13:35:49;0.77;;;0.50;;
45642;SDS011;31358;46.008;11.144;2022-09-09T13:38:20;2.13;;;0.52;;
45642;SDS011;31358;46.008;11.144;2022-09-09T13:40:53;0.60;;;0.40;;
45642;SDS011;31358;46.008;11.144;2022-09-09T13:43:21;0.93;;;0.60;;
45642;SDS011;31358;46.008;11.144;2022-09-09T13:45:55;1.27;;;0.60;;
45642;SDS011;31358;46.008;11.144;2022-09-09T13:48:22;1.65;;;0.60;;
45642;SDS011;31358;46.008;11.144;2022-09-09T13:50:55;0.75;;;0.50;;
45642;SDS011;31358;46.008;11.144;2022-09-09T13:53:25;0.90;;;0.50;;
45642;SDS011;31358;46.008;11.144;2022-09-09T13:55:51;2.63;;;0.68;;
45642;SDS011;31358;46.008;11.144;2022-09-09T13:58:18;5.97;;;0.82;;
45642;SDS011;31358;46.008;11.144;2022-09-09T14:00:44;1.70;;;0.60;;
45642;SDS011;31358;46.008;11.144;2022-09-09T14:03:11;4.30;;;0.70;;
45642;SDS011;31358;46.008;11.144;2022-09-09T14:05:36;1.38;;;0.60;;
45642;SDS011;31358;46.008;11.144;2022-09-09T14:08:03;1.42;;;0.60;;
45642;SDS011;31358;46.008;11.144;2022-09-09T14:10:30;2.05;;;0.60;;
45642;SDS011;31358;46.008;11.144;2022-09-09T14:12:56;1.20;;;0.40;;
45642;SDS011;31358;46.008;11.144;2022-09-09T14:15:21;2.53;;;0.63;;
45642;SDS011;31358;46.008;11.144;2022-09-09T14:17:47;2.97;;;0.60;;
45642;SDS011;31358;46.008;11.144;2022-09-09T14:20:13;1.50;;;0.70;;
45642;SDS011;31358;46.008;11.144;2022-09-09T14:22:40;3.95;;;0.70;;
45642;SDS011;31358;46.008;11.144;2022-09-09T14:25:07;1.17;;;0.50;;
45642;SDS011;31358;46.008;11.144;2022-09-09T14:27:33;1.65;;;0.75;;
45642;SDS011;31358;46.008;11.144;2022-09-09T14:29:59;3.50;;;0.57;;
45642;SDS011;31358;46.008;11.144;2022-09-09T14:32:25;1.35;;;0.60;;
45642;SDS011;31358;46.008;11.144;2022-09-09T14:34:51;1.05;;;0.45;;
45642;SDS011;31358;46.008;11.144;2022-09-09T14:37:17;1.70;;;0.55;;
45642;SDS011;31358;46.008;11.144;2022-09-09T14:39:43;1.77;;;0.68;;
45642;SDS011;31358;46.008;11.144;2022-09-09T14:42:10;2.25;;;0.60;;
45642;SDS011;31358;46.008;11.144;2022-09-09T14:44:36;2.65;;;0.60;;
45642;SDS011;31358;46.008;11.144;2022-09-09T14:47:03;3.47;;;0.68;;
45642;SDS011;31358;46.008;11.144;2022-09-09T14:49:35;3.75;;;0.80;;
45642;SDS011;31358;46.008;11.144;2022-09-09T14:52:02;1.52;;;0.52;;
45642;SDS011;31358;46.008;11.144;2022-09-09T14:54:28;2.65;;;0.60;;
45642;SDS011;31358;46.008;11.144;2022-09-09T14:56:54;3.00;;;0.80;;
45642;SDS011;31358;46.008;11.144;2022-09-09T14:59:22;1.75;;;0.70;;
45642;SDS011;31358;46.008;11.144;2022-09-09T15:01:47;3.75;;;0.70;;
45642;SDS011;31358;46.008;11.144;2022-09-09T15:04:13;1.20;;;0.70;;
45642;SDS011;31358;46.008;11.144;2022-09-09T15:06:39;1.50;;;0.50;;
45642;SDS011;31358;46.008;11.144;2022-09-09T15:09:07;1.42;;;0.60;;
45642;SDS011;31358;46.008;11.144;2022-09-09T15:11:34;1.25;;;0.40;;
45642;SDS011;31358;46.008;11.144;2022-09-09T15:14:03;3.03;;;0.70;;
45642;SDS011;31358;46.008;11.144;2022-09-09T15:16:29;2.45;;;0.60;;
45642;SDS011;31358;46.008;11.144;2022-09-09T15:18:57;2.15;;;0.80;;
45642;SDS011;31358;46.008;11.144;2022-09-09T15:21:28;1.95;;;0.73;;
45642;SDS011;31358;46.008;11.144;2022-09-09T15:23:56;1.52;;;0.60;;
45642;SDS011;31358;46.008;11.144;2022-09-09T15:26:22;2.15;;;0.82;;
45642;SDS011;31358;46.008;11.144;2022-09-09T15:28:49;2.60;;;0.68;;
45642;SDS011;31358;46.008;11.144;2022-09-09T15:31:17;1.58;;;0.60;;
45642;SDS011;31358;46.008;11.144;2022-09-09T15:33:51;1.10;;;0.60;;
45642;SDS011;31358;46.008;11.144;2022-09-09T15:36:19;1.90;;;0.50;;
45642;SDS011;31358;46.008;11.144;2022-09-09T15:38:46;1.42;;;0.55;;
45642;SDS011;31358;46.008;11.144;2022-09-09T15:41:12;1.38;;;0.57;;
45642;SDS011;31358;46.008;11.144;2022-09-09T15:43:39;1.30;;;0.70;;
45642;SDS011;31358;46.008;11.144;2022-09-09T15:46:26;3.00;;;0.80;;
45642;SDS011;31358;46.008;11.144;2022-09-09T15:49:15;2.33;;;0.88;;
45642;SDS011;31358;46.008;11.144;2022-09-09T15:51:44;2.70;;;0.77;;
45642;SDS011;31358;46.008;11.144;2022-09-09T15:54:12;1.65;;;0.60;;
45642;SDS011;31358;46.008;11.144;2022-09-09T15:56:39;3.08;;;0.60;;
45642;SDS011;31358;46.008;11.144;2022-09-09T15:59:05;1.48;;;0.47;;
45642;SDS011;31358;46.008;11.144;2022-09-09T16:01:31;2.42;;;0.73;;
45642;SDS011;31358;46.008;11.144;2022-09-09T16:03:57;2.40;;;0.55;;
45642;SDS011;31358;46.008;11.144;2022-09-09T16:06:25;3.42;;;0.80;;
45642;SDS011;31358;46.008;11.144;2022-09-09T16:08:53;1.33;;;0.60;;
45642;SDS011;31358;46.008;11.144;2022-09-09T16:11:21;1.48;;;0.63;;
45642;SDS011;31358;46.008;11.144;2022-09-09T16:13:49;1.83;;;0.60;;
45642;SDS011;31358;46.008;11.144;2022-09-09T16:16:17;2.53;;;0.50;;
45642;SDS011;31358;46.008;11.144;2022-09-09T16:18:47;1.27;;;0.50;;
45642;SDS011;31358;46.008;11.144;2022-09-09T16:21:25;1.05;;;0.50;;
45642;SDS011;31358;46.008;11.144;2022-09-09T16:23:56;1.85;;;0.68;;
45642;SDS011;31358;46.008;11.144;2022-09-09T16:26:29;1.83;;;0.75;;
45642;SDS011;31358;46.008;11.144;2022-09-09T16:28:57;5.65;;;1.00;;
45642;SDS011;31358;46.008;11.144;2022-09-09T16:31:24;1.30;;;0.63;;
45642;SDS011;31358;46.008;11.144;2022-09-09T16:33:51;5.30;;;0.70;;
45642;SDS011;31358;46.008;11.144;2022-09-09T16:36:18;2.50;;;1.05;;
45642;SDS011;31358;46.008;11.144;2022-09-09T16:38:45;2.20;;;0.57;;
45642;SDS011;31358;46.008;11.144;2022-09-09T16:41:12;3.28;;;0.60;;
45642;SDS011;31358;46.008;11.144;2022-09-09T16:43:39;3.28;;;0.70;;
45642;SDS011;31358;46.008;11.144;2022-09-09T16:46:13;1.60;;;0.80;;
45642;SDS011;31358;46.008;11.144;2022-09-09T16:48:43;2.10;;;0.65;;
45642;SDS011;31358;46.008;11.144;2022-09-09T16:53:43;4.30;;;1.07;;
45642;SDS011;31358;46.008;11.144;2022-09-09T16:56:13;4.43;;;1.00;;
45642;SDS011;31358;46.008;11.144;2022-09-09T16:58:41;2.40;;;1.10;;
45642;SDS011;31358;46.008;11.144;2022-09-09T17:01:10;1.60;;;0.82;;
45642;SDS011;31358;46.008;11.144;2022-09-09T17:03:39;1.95;;;0.50;;
45642;SDS011;31358;46.008;11.144;2022-09-09T17:06:08;1.50;;;0.52;;
45642;SDS011;31358;46.008;11.144;2022-09-09T17:08:35;1.33;;;0.60;;
45642;SDS011;31358;46.008;11.144;2022-09-09T17:11:01;3.03;;;0.40;;
45642;SDS011;31358;46.008;11.144;2022-09-09T17:13:26;1.23;;;0.60;;
45642;SDS011;31358;46.008;11.144;2022-09-09T17:15:52;1.17;;;0.47;;
45642;SDS011;31358;46.008;11.144;2022-09-09T17:18:18;2.28;;;0.63;;
45642;SDS011;31358;46.008;11.144;2022-09-09T17:20:44;0.90;;;0.50;;
45642;SDS011;31358;46.008;11.144;2022-09-09T17:23:11;1.80;;;0.60;;
45642;SDS011;31358;46.008;11.144;2022-09-09T17:25:40;1.48;;;0.80;;
45642;SDS011;31358;46.008;11.144;2022-09-09T17:28:06;2.90;;;0.68;;
45642;SDS011;31358;46.008;11.144;2022-09-09T17:30:35;3.20;;;1.25;;
45642;SDS011;31358;46.008;11.144;2022-09-09T17:33:02;1.45;;;0.60;;